Time;durP1;ratioP1;P1;durP2;ratioP2;P2;SDS_P1;SDS_P2;PMS_P1;PMS_P2;Temp;Humidity;BMP_temperature;BMP_pressure;BME280_temperature;BME280_humidity;BME280_pressure;Samples;Min_cycle;Max_cycle;Signal;HPM_P1;HPM_P2
2021/03/17 00:00:46;;;;;;;4.65;3.58;;;5.40;95.00;;;;;;5014839;28;20116;-74
2021/03/17 00:03:12;;;;;;;4.30;3.67;;;5.40;95.00;;;;;;5013468;28;20028;-72
2021/03/17 00:05:40;;;;;;;3.97;3.40;;;5.40;95.10;;;;;;5014042;28;20037;-74
2021/03/17 00:08:06;;;;;;;4.28;3.88;;;5.30;95.00;;;;;;5014742;28;20022;-77
2021/03/17 00:10:38;;;;;;;3.90;3.50;;;5.20;95.00;;;;;;5014164;28;20108;-71
2021/03/17 00:13:05;;;;;;;4.20;3.80;;;5.20;95.20;;;;;;5014428;28;20057;-71
2021/03/17 00:15:36;;;;;;;4.18;3.47;;;5.10;95.20;;;;;;5014428;28;20030;-68
2021/03/17 00:18:03;;;;;;;5.97;3.63;;;5.10;95.30;;;;;;5012590;28;20490;-68
2021/03/17 00:20:29;;;;;;;3.88;3.47;;;5.00;95.30;;;;;;5012760;28;20064;-68
2021/03/17 00:22:55;;;;;;;4.63;3.42;;;5.00;95.30;;;;;;5013181;28;20061;-68
2021/03/17 00:25:29;;;;;;;4.43;3.70;;;5.00;95.40;;;;;;5013243;28;20022;-74
2021/03/17 00:27:56;;;;;;;4.20;3.53;;;5.00;95.40;;;;;;5013163;28;20026;-67
2021/03/17 00:30:23;;;;;;;3.58;3.28;;;5.00;95.40;;;;;;5013781;28;20523;-70
2021/03/17 00:32:48;;;;;;;4.30;3.90;;;5.00;95.50;;;;;;5014023;28;20457;-74
2021/03/17 00:35:14;;;;;;;3.90;3.40;;;5.10;95.50;;;;;;5012626;28;20025;-67
2021/03/17 00:37:39;;;;;;;3.53;3.22;;;5.10;95.60;;;;;;5014027;28;20041;-67
2021/03/17 00:40:06;;;;;;;4.78;3.60;;;5.10;95.50;;;;;;5013407;28;20033;-67
2021/03/17 00:42:32;;;;;;;4.68;3.55;;;5.20;95.50;;;;;;5013652;28;20100;-71
2021/03/17 00:44:57;;;;;;;4.97;3.78;;;5.20;95.40;;;;;;5014075;28;20165;-71
2021/03/17 00:47:23;;;;;;;4.53;3.80;;;5.30;95.30;;;;;;5011445;28;20026;-66
2021/03/17 00:49:49;;;;;;;4.88;3.97;;;5.30;95.40;;;;;;5013924;28;20034;-68
2021/03/17 00:52:14;;;;;;;9.27;6.25;;;5.30;95.40;;;;;;5012313;28;20021;-67
2021/03/17 00:54:40;;;;;;;7.20;4.97;;;5.30;95.40;;;;;;5013059;28;20435;-67
2021/03/17 00:57:06;;;;;;;7.65;4.80;;;5.40;95.30;;;;;;5025654;28;20052;-68
2021/03/17 00:59:31;;;;;;;4.95;4.18;;;5.40;95.20;;;;;;5013299;28;20505;-67
2021/03/17 01:01:57;;;;;;;5.28;3.85;;;5.30;95.20;;;;;;5010943;28;20030;-67
2021/03/17 01:04:24;;;;;;;4.43;3.97;;;5.30;95.20;;;;;;5011295;28;20030;-67
2021/03/17 01:06:49;;;;;;;4.25;3.85;;;5.30;95.20;;;;;;5011854;28;20036;-67
2021/03/17 01:09:15;;;;;;;4.20;3.70;;;5.30;95.20;;;;;;5012549;28;20025;-67
2021/03/17 01:11:41;;;;;;;3.88;3.47;;;5.30;95.20;;;;;;5012143;28;20117;-66
2021/03/17 01:14:07;;;;;;;4.43;3.88;;;5.40;95.30;;;;;;5011690;28;20049;-67
2021/03/17 01:16:33;;;;;;;4.40;3.58;;;5.40;95.30;;;;;;5013093;28;20061;-67
2021/03/17 01:18:58;;;;;;;4.25;3.85;;;5.40;95.30;;;;;;5013393;28;20137;-73
2021/03/17 01:21:25;;;;;;;3.85;3.53;;;5.40;95.20;;;;;;5011016;28;20096;-67
2021/03/17 01:23:51;;;;;;;4.80;3.88;;;5.40;95.20;;;;;;5013337;28;20018;-68
2021/03/17 01:26:17;;;;;;;4.10;3.72;;;5.40;95.20;;;;;;5013140;28;20038;-67
2021/03/17 01:28:42;;;;;;;4.57;4.13;;;5.40;95.20;;;;;;5012305;28;20021;-67
2021/03/17 01:31:08;;;;;;;3.72;3.42;;;5.40;95.20;;;;;;5011935;28;20115;-69
2021/03/17 01:33:34;;;;;;;4.45;3.70;;;5.40;95.10;;;;;;5013123;28;20375;-67
2021/03/17 01:36:00;;;;;;;4.13;3.47;;;5.40;95.20;;;;;;5012495;28;20036;-74
2021/03/17 01:38:26;;;;;;;3.67;3.38;;;5.40;95.20;;;;;;5012532;28;20355;-67
2021/03/17 01:40:53;;;;;;;4.88;3.90;;;5.50;95.20;;;;;;5013376;28;20101;-68
2021/03/17 01:43:18;;;;;;;3.38;3.08;;;5.50;95.20;;;;;;5012029;28;20026;-68
2021/03/17 01:45:45;;;;;;;3.47;3.17;;;5.50;95.20;;;;;;5011527;28;20030;-68
2021/03/17 01:48:11;;;;;;;3.88;3.58;;;5.50;95.20;;;;;;5011080;28;20054;-67
2021/03/17 01:50:40;;;;;;;3.58;3.28;;;5.50;95.10;;;;;;5012676;28;20066;-67
2021/03/17 01:53:14;;;;;;;4.05;3.70;;;5.60;95.10;;;;;;5011550;28;20018;-67
2021/03/17 01:55:40;;;;;;;3.38;3.08;;;5.60;95.10;;;;;;5011306;28;20045;-67
2021/03/17 01:58:07;;;;;;;3.70;3.40;;;5.60;95.10;;;;;;5012258;28;20040;-68
2021/03/17 02:00:34;;;;;;;4.35;3.20;;;5.70;95.10;;;;;;5012437;28;20014;-71
2021/03/17 02:03:00;;;;;;;3.20;2.90;;;5.70;95.10;;;;;;5011510;28;20113;-68
2021/03/17 02:05:28;;;;;;;3.20;2.90;;;5.60;95.00;;;;;;5010333;28;20108;-68
2021/03/17 02:08:02;;;;;;;3.97;3.40;;;5.70;95.00;;;;;;5012731;28;20429;-67
2021/03/17 02:10:28;;;;;;;3.30;3.00;;;5.60;94.90;;;;;;5010374;28;20030;-69
2021/03/17 02:13:31;;;;;;;3.25;2.95;;;5.60;95.00;;;;;;5012809;28;20029;-70
2021/03/17 02:16:26;;;;;;;3.28;3.00;;;5.70;95.00;;;;;;5012481;28;20465;-68
2021/03/17 02:19:20;;;;;;;4.93;4.45;;;5.60;94.80;;;;;;5011786;28;20037;-73
2021/03/17 02:21:59;;;;;;;3.70;3.40;;;5.50;94.90;;;;;;5004607;28;20044;-74
2021/03/17 02:24:48;;;;;;;4.15;3.70;;;5.60;95.00;;;;;;5009229;28;20026;-67
2021/03/17 02:27:30;;;;;;;4.28;3.65;;;5.60;95.00;;;;;;5008983;28;20168;-70
2021/03/17 02:30:14;;;;;;;4.00;3.63;;;5.70;95.10;;;;;;5012390;28;20025;-71
2021/03/17 02:33:10;;;;;;;4.47;4.07;;;5.70;95.10;;;;;;5011757;28;20109;-67
2021/03/17 02:35:38;;;;;;;4.72;3.95;;;5.70;95.10;;;;;;5012271;28;20109;-73
2021/03/17 02:38:09;;;;;;;4.40;4.00;;;5.70;95.10;;;;;;5011134;28;20084;-67
2021/03/17 02:40:37;;;;;;;4.53;4.13;;;5.80;95.10;;;;;;5010459;28;20033;-67
2021/03/17 02:43:19;;;;;;;5.07;4.57;;;5.80;95.20;;;;;;5012573;28;20273;-71
2021/03/17 02:45:54;;;;;;;4.75;4.35;;;5.80;95.20;;;;;;5011381;28;20084;-72
2021/03/17 02:48:48;;;;;;;4.85;4.45;;;5.80;95.20;;;;;;5010336;28;20052;-68
2021/03/17 02:51:29;;;;;;;5.80;4.50;;;5.80;95.50;;;;;;5011008;28;20046;-71
2021/03/17 02:53:56;;;;;;;6.88;6.07;;;5.80;95.30;;;;;;5011316;28;20084;-71
2021/03/17 02:56:23;;;;;;;4.85;4.45;;;5.80;95.40;;;;;;5010692;28;20030;-70
2021/03/17 02:58:50;;;;;;;4.53;4.13;;;5.80;95.50;;;;;;5011927;28;20386;-68
2021/03/17 03:01:17;;;;;;;4.95;4.45;;;5.80;95.50;;;;;;5011115;28;20054;-69
2021/03/17 03:03:45;;;;;;;4.28;3.90;;;5.70;95.60;;;;;;5011879;28;20386;-70
2021/03/17 03:06:11;;;;;;;4.00;3.70;;;5.80;95.70;;;;;;5011720;28;20482;-71
2021/03/17 03:08:41;;;;;;;7.90;6.07;;;5.70;95.70;;;;;;5009910;28;20113;-78
2021/03/17 03:11:08;;;;;;;5.13;4.63;;;5.80;95.80;;;;;;5012290;28;20022;-73
2021/03/17 03:13:36;;;;;;;4.65;4.25;;;5.80;95.80;;;;;;5010727;28;20033;-70
2021/03/17 03:16:04;;;;;;;5.18;4.68;;;5.80;95.80;;;;;;5011195;28;20030;-69
2021/03/17 03:18:33;;;;;;;4.25;3.90;;;5.90;95.80;;;;;;5010000;28;20026;-67
2021/03/17 03:20:59;;;;;;;5.95;4.50;;;5.90;95.70;;;;;;5009811;28;20060;-68
2021/03/17 03:23:25;;;;;;;5.03;4.63;;;5.90;95.70;;;;;;5010018;28;20018;-70
2021/03/17 03:25:52;;;;;;;4.57;4.18;;;5.90;95.60;;;;;;5011847;28;20026;-68
2021/03/17 03:28:20;;;;;;;4.60;4.20;;;5.90;95.60;;;;;;5010834;28;20370;-69
2021/03/17 03:30:48;;;;;;;5.32;4.70;;;5.90;95.70;;;;;;5011802;28;20109;-68
2021/03/17 03:33:14;;;;;;;3.95;3.65;;;5.90;95.80;;;;;;5011593;28;20478;-72
2021/03/17 03:35:41;;;;;;;4.57;4.22;;;5.90;95.70;;;;;;5009589;28;20030;-68
2021/03/17 03:38:11;;;;;;;4.47;4.07;;;5.90;95.70;;;;;;5013849;28;20041;-69
2021/03/17 03:40:38;;;;;;;4.13;3.83;;;5.90;95.70;;;;;;5015232;28;20018;-70
2021/03/17 03:43:05;;;;;;;4.82;4.32;;;6.00;95.70;;;;;;5014550;28;20030;-68
2021/03/17 03:45:31;;;;;;;4.25;3.90;;;6.00;95.60;;;;;;5015306;28;20017;-69
2021/03/17 03:47:57;;;;;;;4.85;3.80;;;6.10;95.70;;;;;;5013814;28;20552;-68
2021/03/17 03:50:24;;;;;;;3.72;3.42;;;6.10;95.70;;;;;;5013879;28;20026;-69
2021/03/17 03:53:16;;;;;;;3.78;3.47;;;6.10;95.60;;;;;;5015155;28;20052;-74
2021/03/17 03:55:50;;;;;;;3.28;3.08;;;6.10;95.50;;;;;;5015071;28;20037;-67
2021/03/17 03:58:29;;;;;;;3.03;2.83;;;6.10;95.50;;;;;;5013866;28;20412;-74
2021/03/17 04:01:05;;;;;;;3.47;3.28;;;6.20;95.50;;;;;;5015132;28;20030;-70
2021/03/17 04:03:37;;;;;;;3.25;3.05;;;6.20;95.40;;;;;;5013955;28;20022;-73
2021/03/17 04:06:04;;;;;;;14.73;8.02;;;6.20;95.40;;;;;;5014896;28;20099;-71
2021/03/17 04:08:32;;;;;;;3.10;2.83;;;6.20;95.30;;;;;;5014324;28;20478;-68
2021/03/17 04:11:00;;;;;;;2.83;2.63;;;6.20;95.30;;;;;;5014166;28;20087;-69
2021/03/17 04:13:29;;;;;;;3.75;3.45;;;6.10;95.30;;;;;;5013049;28;20112;-67
2021/03/17 04:15:56;;;;;;;3.17;2.95;;;6.10;95.30;;;;;;5013218;28;20044;-72
2021/03/17 04:18:27;;;;;;;3.13;2.92;;;6.20;95.40;;;;;;5012555;28;20120;-75
2021/03/17 04:20:56;;;;;;;3.33;2.92;;;6.20;95.40;;;;;;5014701;28;20026;-72
2021/03/17 04:23:25;;;;;;;3.15;2.80;;;6.20;95.40;;;;;;5014190;28;20018;-69
2021/03/17 04:25:53;;;;;;;2.70;2.50;;;6.20;95.30;;;;;;5014158;28;20034;-77
2021/03/17 04:28:22;;;;;;;3.03;2.83;;;6.30;95.30;;;;;;5014027;28;20021;-69
2021/03/17 04:30:50;;;;;;;3.90;2.72;;;6.30;95.30;;;;;;5014842;28;20440;-72
2021/03/17 04:33:16;;;;;;;2.72;2.53;;;6.30;95.30;;;;;;5013710;28;20109;-71
2021/03/17 04:35:43;;;;;;;3.33;3.00;;;6.30;95.30;;;;;;5014150;28;20478;-72
2021/03/17 04:38:12;;;;;;;2.60;2.22;;;6.30;95.40;;;;;;5014200;28;20093;-72
2021/03/17 04:40:37;;;;;;;12.43;3.38;;;6.30;95.30;;;;;;5014077;28;20025;-71
2021/03/17 04:43:05;;;;;;;3.35;2.50;;;6.30;95.30;;;;;;5012824;28;20030;-77
2021/03/17 04:45:31;;;;;;;2.70;2.47;;;6.30;95.30;;;;;;5011738;28;20022;-68
2021/03/17 04:47:58;;;;;;;2.95;2.75;;;6.30;95.30;;;;;;5013669;28;20042;-68
2021/03/17 04:50:26;;;;;;;3.55;2.63;;;6.30;95.30;;;;;;5012203;28;20038;-71
2021/03/17 04:52:53;;;;;;;3.33;3.08;;;6.30;95.20;;;;;;5013261;28;20030;-68
2021/03/17 04:55:19;;;;;;;3.03;2.80;;;6.30;95.20;;;;;;5012414;28;20022;-73
2021/03/17 04:57:46;;;;;;;8.32;3.33;;;6.30;95.20;;;;;;5013650;28;20045;-69
2021/03/17 05:00:17;;;;;;;2.67;2.47;;;6.30;95.20;;;;;;5011402;28;20021;-77
2021/03/17 05:02:49;;;;;;;2.88;2.55;;;6.30;95.20;;;;;;5012529;28;20029;-68
2021/03/17 05:05:15;;;;;;;3.95;2.72;;;6.30;95.30;;;;;;5014020;28;20021;-77
2021/03/17 05:07:42;;;;;;;3.05;2.80;;;6.30;95.30;;;;;;5012897;28;20022;-68
2021/03/17 05:10:11;;;;;;;4.93;3.08;;;6.30;95.30;;;;;;5013652;28;20128;-70
2021/03/17 05:12:40;;;;;;;3.35;2.95;;;6.30;95.30;;;;;;5013514;28;20091;-70
2021/03/17 05:15:07;;;;;;;2.92;2.70;;;6.40;95.40;;;;;;5013029;28;20022;-69
2021/03/17 05:17:35;;;;;;;2.70;2.50;;;6.40;95.30;;;;;;5013033;28;20022;-71
2021/03/17 05:20:03;;;;;;;3.22;2.92;;;6.30;95.20;;;;;;5012072;28;20392;-68
2021/03/17 05:22:29;;;;;;;2.50;2.30;;;6.30;95.30;;;;;;5012460;28;20032;-69
2021/03/17 05:24:56;;;;;;;2.28;2.17;;;6.30;95.30;;;;;;5013550;28;20101;-68
2021/03/17 05:27:28;;;;;;;2.55;2.20;;;6.20;95.30;;;;;;5012825;28;20491;-69
2021/03/17 05:29:54;;;;;;;2.00;1.80;;;6.20;95.40;;;;;;5013139;28;20171;-69
2021/03/17 05:32:20;;;;;;;2.30;2.10;;;6.20;95.40;;;;;;5012833;28;20072;-68
2021/03/17 05:34:56;;;;;;;2.10;2.00;;;6.10;95.50;;;;;;5012549;28;20026;-69
2021/03/17 05:37:23;;;;;;;2.17;2.08;;;6.20;95.60;;;;;;5011549;28;20498;-69
2021/03/17 05:39:49;;;;;;;2.00;1.88;;;6.20;95.50;;;;;;5012934;28;20064;-73
2021/03/17 05:42:15;;;;;;;2.40;2.20;;;6.10;95.50;;;;;;5010928;28;20053;-71
2021/03/17 05:44:40;;;;;;;2.67;2.22;;;6.10;95.50;;;;;;5012761;28;20026;-68
2021/03/17 05:47:09;;;;;;;3.80;2.20;;;6.20;95.50;;;;;;5013110;28;20109;-68
2021/03/17 05:49:36;;;;;;;2.10;1.90;;;6.20;95.50;;;;;;5010883;28;20038;-68
2021/03/17 05:52:02;;;;;;;3.55;2.10;;;6.10;95.40;;;;;;5013204;28;20026;-68
2021/03/17 05:54:28;;;;;;;5.55;2.50;;;6.10;95.40;;;;;;5011138;28;20030;-68
2021/03/17 05:56:55;;;;;;;4.60;4.20;;;6.20;95.50;;;;;;5010642;28;20044;-69
2021/03/17 05:59:21;;;;;;;8.50;2.72;;;6.10;95.40;;;;;;5011944;28;20021;-68
2021/03/17 06:01:47;;;;;;;2.35;2.10;;;6.10;95.40;;;;;;5012348;28;20071;-74
2021/03/17 06:04:15;;;;;;;3.80;2.47;;;6.10;95.40;;;;;;5011707;28;20101;-68
2021/03/17 06:06:44;;;;;;;4.50;2.75;;;6.20;95.30;;;;;;5011378;28;20061;-68
2021/03/17 06:09:10;;;;;;;3.05;2.53;;;6.10;95.30;;;;;;5010908;28;20022;-67
2021/03/17 06:11:36;;;;;;;25.73;16.92;;;6.10;95.60;;;;;;5011922;28;20030;-68
2021/03/17 06:14:07;;;;;;;3.38;2.60;;;6.10;95.30;;;;;;5011370;28;20188;-68
2021/03/17 06:16:36;;;;;;;3.57;2.93;;;6.00;95.20;;;;;;5012259;28;20038;-69
2021/03/17 06:19:03;;;;;;;4.50;2.80;;;6.00;95.20;;;;;;5011870;28;20045;-69
2021/03/17 06:21:29;;;;;;;3.53;3.00;;;6.00;95.30;;;;;;5010799;28;20030;-68
2021/03/17 06:23:56;;;;;;;4.32;2.65;;;6.00;95.30;;;;;;5011518;28;20479;-68
2021/03/17 06:26:23;;;;;;;4.97;2.97;;;6.00;95.40;;;;;;5012002;28;20060;-68
2021/03/17 06:28:50;;;;;;;3.85;2.85;;;6.10;95.30;;;;;;5012245;28;20473;-72
2021/03/17 06:31:15;;;;;;;5.65;3.40;;;6.10;95.20;;;;;;5010107;28;20022;-68
2021/03/17 06:33:41;;;;;;;5.00;3.60;;;6.10;95.30;;;;;;5012118;28;20021;-68
2021/03/17 06:36:18;;;;;;;3.20;2.90;;;6.10;95.30;;;;;;5012290;28;20033;-69
2021/03/17 06:38:45;;;;;;;4.85;3.38;;;6.10;95.30;;;;;;5011216;28;20037;-73
2021/03/17 06:41:11;;;;;;;6.63;4.63;;;6.20;95.30;;;;;;5014597;28;20056;-70
2021/03/17 06:43:41;;;;;;;3.95;3.55;;;6.30;95.30;;;;;;5021058;28;20026;-70
2021/03/17 06:46:09;;;;;;;5.97;3.47;;;6.30;95.10;;;;;;5010296;28;20124;-68
2021/03/17 06:48:38;;;;;;;9.48;3.58;;;6.30;95.10;;;;;;5010731;28;20042;-70
2021/03/17 06:51:24;;;;;;;5.53;3.38;;;6.30;95.00;;;;;;5010972;28;20030;-71
2021/03/17 06:53:56;;;;;;;3.00;2.70;;;6.30;95.00;;;;;;5011230;28;20403;-68
2021/03/17 06:56:34;;;;;;;;;;;6.30;95.00;;;;;;5012100;28;20030;-69
2021/03/17 06:59:02;;;;;;;4.25;3.92;;;6.30;95.00;;;;;;5011268;28;19905;-79
2021/03/17 07:01:36;;;;;;;9.93;8.98;;;6.20;94.70;;;;;;5011747;28;20030;-70
2021/03/17 07:04:16;;;;;;;2.90;2.08;;;6.10;94.10;;;;;;5010728;28;20026;-69
2021/03/17 07:06:44;;;;;;;5.40;1.95;;;6.10;93.80;;;;;;5012524;28;20028;-69
2021/03/17 07:09:25;;;;;;;1.80;1.60;;;6.10;93.90;;;;;;5011675;28;20116;-75
2021/03/17 07:11:52;;;;;;;4.00;1.90;;;6.10;93.70;;;;;;5012258;28;20032;-75
2021/03/17 07:14:25;;;;;;;2.92;1.90;;;6.10;93.80;;;;;;5020256;28;20037;-69
2021/03/17 07:16:51;;;;;;;4.57;2.50;;;6.10;93.80;;;;;;5004893;28;20116;-75
2021/03/17 07:19:36;;;;;;;5.82;5.22;;;6.20;93.90;;;;;;5015172;28;20018;-69
2021/03/17 07:22:22;;;;;;;3.15;1.90;;;6.20;93.70;;;;;;5010502;28;20022;-67
2021/03/17 07:24:53;;;;;;;1.90;1.73;;;6.30;93.80;;;;;;5015853;28;20088;-68
2021/03/17 07:27:18;;;;;;;2.63;1.85;;;6.40;93.90;;;;;;5014136;28;20673;-69
2021/03/17 07:29:57;;;;;;;2.67;2.47;;;6.50;93.80;;;;;;5026245;28;20025;-69
2021/03/17 07:32:23;;;;;;;2.30;2.10;;;6.60;93.80;;;;;;5034423;28;20029;-69
2021/03/17 07:34:48;;;;;;;9.02;5.35;;;6.60;93.30;;;;;;5021308;28;20018;-70
2021/03/17 07:37:14;;;;;;;1.77;1.63;;;6.70;93.50;;;;;;5012466;28;20053;-68
2021/03/17 07:39:42;;;;;;;6.47;2.67;;;6.70;93.20;;;;;;5015191;28;20032;-71
2021/03/17 07:42:12;;;;;;;2.40;1.63;;;6.80;93.30;;;;;;5026178;28;20021;-69
2021/03/17 07:44:41;;;;;;;1.77;1.40;;;6.80;92.70;;;;;;5029220;28;20433;-71
2021/03/17 07:47:09;;;;;;;2.75;1.50;;;6.90;92.70;;;;;;5014195;28;20018;-71
2021/03/17 07:49:38;;;;;;;4.05;1.38;;;7.00;92.30;;;;;;5014479;28;20034;-72
2021/03/17 07:52:05;;;;;;;2.67;1.35;;;7.00;91.80;;;;;;5012417;28;21245;-71
2021/03/17 07:54:33;;;;;;;3.38;1.20;;;7.10;91.40;;;;;;5010310;28;20024;-69
2021/03/17 07:57:02;;;;;;;2.60;1.70;;;7.10;91.20;;;;;;5013516;28;20524;-70
2021/03/17 07:59:29;;;;;;;3.53;1.38;;;7.20;91.40;;;;;;5012689;28;20096;-74
2021/03/17 08:01:56;;;;;;;4.80;1.40;;;7.20;91.20;;;;;;5013932;28;20470;-71
2021/03/17 08:04:30;;;;;;;13.13;11.10;;;7.30;91.10;;;;;;5011721;28;20029;-67
2021/03/17 08:06:59;;;;;;;3.67;1.75;;;7.30;90.20;;;;;;4993453;28;20456;-69
2021/03/17 08:09:25;;;;;;;4.90;1.75;;;7.20;90.20;;;;;;4993743;28;20031;-70
2021/03/17 08:11:52;;;;;;;4.80;1.42;;;7.20;90.20;;;;;;4994314;28;20033;-69
2021/03/17 08:14:20;;;;;;;8.00;3.15;;;7.30;90.30;;;;;;4992895;28;20115;-74
2021/03/17 08:16:46;;;;;;;10.25;8.43;;;7.30;89.50;;;;;;5011498;28;20065;-70
2021/03/17 08:19:26;;;;;;;4.43;1.50;;;7.30;89.50;;;;;;5030355;28;20029;-76
2021/03/17 08:22:01;;;;;;;2.53;1.20;;;7.30;90.10;;;;;;5032425;28;20029;-70
2021/03/17 08:24:31;;;;;;;1.90;1.20;;;7.30;90.30;;;;;;5010847;28;20022;-67
2021/03/17 08:26:58;;;;;;;2.28;1.17;;;7.40;90.10;;;;;;5012514;28;20398;-70
2021/03/17 08:29:34;;;;;;;7.57;1.40;;;7.30;90.10;;;;;;5002768;28;20014;-68
2021/03/17 08:32:00;;;;;;;4.65;1.23;;;7.20;90.40;;;;;;4998785;28;20030;-72
2021/03/17 08:34:27;;;;;;;4.47;1.27;;;7.10;90.80;;;;;;5012054;28;20026;-74
2021/03/17 08:37:01;;;;;;;4.00;1.60;;;7.10;91.00;;;;;;5013831;28;20034;-73
2021/03/17 08:39:30;;;;;;;7.25;1.42;;;7.10;90.60;;;;;;5013031;28;20033;-79
2021/03/17 08:41:57;;;;;;;4.72;1.38;;;7.10;90.30;;;;;;5012052;28;20033;-71
2021/03/17 08:44:28;;;;;;;6.85;1.67;;;7.20;88.50;;;;;;5012922;28;20049;-69
2021/03/17 08:46:56;;;;;;;3.70;1.40;;;7.30;88.60;;;;;;5013758;28;20038;-70
2021/03/17 08:49:35;;;;;;;3.65;3.03;;;7.50;88.40;;;;;;5013145;28;20053;-72
2021/03/17 08:52:06;;;;;;;12.50;6.75;;;7.80;87.90;;;;;;5012766;28;20625;-74
2021/03/17 08:54:34;;;;;;;7.43;1.30;;;7.80;86.00;;;;;;5012834;28;20093;-69
2021/03/17 08:57:05;;;;;;;7.03;1.60;;;7.70;86.60;;;;;;5007738;28;20046;-72
2021/03/17 08:59:49;;;;;;;3.90;1.42;;;7.50;87.50;;;;;;4991327;28;20014;-72
2021/03/17 09:02:18;;;;;;;3.30;1.40;;;7.40;88.20;;;;;;4994916;28;20411;-71
2021/03/17 09:04:49;;;;;;;4.55;1.63;;;7.40;89.50;;;;;;4994031;28;20023;-72
2021/03/17 09:07:15;;;;;;;4.80;1.47;;;7.40;89.30;;;;;;5000990;28;20494;-68
2021/03/17 09:09:55;;;;;;;2.78;1.10;;;7.40;89.00;;;;;;5013371;28;20144;-72
2021/03/17 09:12:26;;;;;;;6.55;1.40;;;7.40;89.90;;;;;;5013045;28;20030;-70
2021/03/17 09:15:11;;;;;;;4.57;1.45;;;7.50;89.60;;;;;;5011474;28;20021;-70
2021/03/17 09:18:07;;;;;;;4.38;1.42;;;7.50;89.80;;;;;;5004648;28;20045;-71
2021/03/17 09:20:38;;;;;;;4.55;1.58;;;7.50;89.90;;;;;;4996128;28;20038;-77
2021/03/17 09:23:14;;;;;;;18.03;11.23;;;7.40;90.00;;;;;;4994061;28;20509;-77
2021/03/17 09:25:48;;;;;;;3.85;1.55;;;7.30;89.50;;;;;;4993919;28;20120;-80
2021/03/17 09:28:24;;;;;;;6.82;2.70;;;7.10;90.30;;;;;;4992940;28;20510;-78
2021/03/17 09:31:06;;;;;;;2.65;1.83;;;6.90;90.50;;;;;;4992247;28;20026;-78
2021/03/17 09:33:38;;;;;;;3.30;1.35;;;6.80;91.10;;;;;;4992061;28;20018;-77
2021/03/17 09:36:13;;;;;;;3.50;1.88;;;6.80;91.50;;;;;;4993444;28;20081;-78
2021/03/17 09:38:41;;;;;;;6.78;1.77;;;6.70;91.60;;;;;;4993326;28;20363;-78
2021/03/17 09:41:19;;;;;;;12.18;9.38;;;6.60;91.70;;;;;;4992895;28;20150;-77
2021/03/17 09:43:53;;;;;;;4.10;1.65;;;6.50;92.10;;;;;;4993314;28;20057;-77
2021/03/17 09:46:35;;;;;;;2.92;1.25;;;6.50;92.60;;;;;;4992073;28;20459;-73
2021/03/17 09:49:07;;;;;;;2.67;1.77;;;6.50;92.80;;;;;;4992282;28;20047;-78
2021/03/17 09:51:40;;;;;;;7.68;4.35;;;6.60;93.00;;;;;;4993120;28;20026;-77
2021/03/17 09:54:09;;;;;;;5.15;1.65;;;6.70;92.90;;;;;;4993426;28;20430;-77
2021/03/17 09:56:41;;;;;;;5.93;1.48;;;6.90;92.30;;;;;;4991334;28;20062;-77
2021/03/17 09:59:17;;;;;;;;;;;7.20;92.10;;;;;;4993611;28;20044;-77
2021/03/17 10:01:55;;;;;;;5.43;1.88;;;7.50;91.20;;;;;;4992527;28;19905;-68
2021/03/17 10:04:31;;;;;;;5.57;2.33;;;7.70;90.70;;;;;;4992604;28;20050;-71
2021/03/17 10:06:57;;;;;;;7.20;3.92;;;7.90;90.10;;;;;;4993209;28;20076;-74
2021/03/17 10:09:32;;;;;;;27.20;18.15;;;8.00;88.40;;;;;;4991916;28;20360;-76
2021/03/17 10:12:13;;;;;;;4.63;1.90;;;8.00;87.30;;;;;;4991972;28;20548;-74
2021/03/17 10:14:45;;;;;;;5.45;1.38;;;8.00;84.00;;;;;;4992974;28;20026;-74
2021/03/17 10:17:12;;;;;;;3.67;1.20;;;8.00;83.60;;;;;;4991748;28;20066;-74
2021/03/17 10:19:39;;;;;;;6.00;1.50;;;8.10;85.10;;;;;;4992469;28;20026;-73
2021/03/17 10:22:08;;;;;;;4.18;1.15;;;8.20;83.10;;;;;;4991910;28;20026;-76
2021/03/17 10:24:40;;;;;;;4.50;1.23;;;8.30;83.10;;;;;;4990968;28;20026;-79
2021/03/17 10:27:11;;;;;;;8.18;3.17;;;8.40;83.40;;;;;;4993308;28;20094;-79
2021/03/17 10:29:38;;;;;;;6.95;1.30;;;8.50;83.50;;;;;;4992831;28;20037;-79
2021/03/17 10:32:05;;;;;;;4.03;1.55;;;8.60;82.60;;;;;;4992250;28;20023;-78
2021/03/17 10:34:31;;;;;;;7.95;1.98;;;8.70;80.80;;;;;;4991144;28;20053;-78
2021/03/17 10:36:57;;;;;;;4.68;1.40;;;8.80;80.90;;;;;;4991881;28;20482;-68
2021/03/17 10:39:31;;;;;;;6.18;1.60;;;8.90;81.10;;;;;;4992191;28;20033;-73
2021/03/17 10:41:58;;;;;;;4.88;1.45;;;8.80;79.40;;;;;;4992749;28;20389;-69
2021/03/17 10:44:26;;;;;;;4.85;1.40;;;8.80;80.60;;;;;;4990139;28;20033;-75
2021/03/17 10:46:56;;;;;;;5.68;1.70;;;8.90;80.60;;;;;;4993100;28;20038;-76
2021/03/17 10:49:22;;;;;;;6.13;1.48;;;8.90;79.50;;;;;;4995972;28;20077;-78
2021/03/17 10:51:55;;;;;;;5.40;1.77;;;9.00;80.50;;;;;;4994630;28;20018;-78
2021/03/17 10:54:40;;;;;;;7.30;2.20;;;9.20;79.80;;;;;;4996210;28;20049;-78
2021/03/17 10:57:07;;;;;;;8.68;5.00;;;9.30;79.60;;;;;;4995119;28;20041;-79
2021/03/17 10:59:36;;;;;;;6.38;1.70;;;9.30;76.30;;;;;;4993959;28;20026;-74
2021/03/17 11:02:14;;;;;;;7.75;1.77;;;9.20;76.80;;;;;;4996383;28;20101;-78
2021/03/17 11:05:06;;;;;;;7.43;1.90;;;9.20;76.90;;;;;;5011320;28;20084;-78
2021/03/17 11:07:57;;;;;;;3.60;1.20;;;9.30;74.70;;;;;;5010862;28;20069;-78
2021/03/17 11:10:32;;;;;;;2.88;1.27;;;9.30;75.60;;;;;;4989953;28;20027;-69
2021/03/17 11:13:22;;;;;;;5.20;1.60;;;9.30;76.40;;;;;;4995556;28;20030;-68
2021/03/17 11:15:56;;;;;;;4.63;1.45;;;9.20;74.10;;;;;;4994718;28;20486;-68
2021/03/17 11:18:26;;;;;;;4.75;1.42;;;9.00;75.10;;;;;;4994406;28;20030;-76
2021/03/17 11:20:53;;;;;;;4.30;1.33;;;8.80;75.40;;;;;;4995405;28;20070;-71
2021/03/17 11:23:25;;;;;;;9.25;2.65;;;8.70;76.70;;;;;;4995688;28;20073;-69
2021/03/17 11:25:53;;;;;;;6.95;1.90;;;8.60;77.20;;;;;;4995909;28;20584;-78
2021/03/17 11:28:23;;;;;;;5.05;1.75;;;8.60;77.70;;;;;;4995447;28;20106;-78
2021/03/17 11:30:54;;;;;;;6.80;2.08;;;8.60;78.00;;;;;;4995831;28;20026;-68
2021/03/17 11:33:20;;;;;;;9.10;2.08;;;8.70;78.90;;;;;;4993537;28;20121;-68
2021/03/17 11:35:47;;;;;;;7.57;2.28;;;8.80;78.70;;;;;;4995859;28;20097;-72
2021/03/17 11:38:13;;;;;;;5.82;2.05;;;8.80;78.20;;;;;;4995387;28;20034;-69
2021/03/17 11:40:39;;;;;;;7.53;1.75;;;8.90;77.90;;;;;;4994961;28;20026;-66
2021/03/17 11:43:16;;;;;;;10.20;2.00;;;9.10;78.80;;;;;;4995631;28;20018;-77
2021/03/17 11:45:43;;;;;;;7.25;1.50;;;9.40;79.20;;;;;;4996365;28;20023;-71
2021/03/17 11:48:09;;;;;;;4.07;1.90;;;9.40;77.00;;;;;;4993161;28;20209;-70
2021/03/17 11:50:36;;;;;;;6.40;1.75;;;9.20;76.60;;;;;;4995481;28;20026;-74
2021/03/17 11:53:03;;;;;;;9.88;3.17;;;9.00;78.40;;;;;;4994359;28;20463;-78
2021/03/17 11:55:30;;;;;;;5.68;1.75;;;8.80;80.60;;;;;;4994327;28;20077;-69
2021/03/17 11:57:56;;;;;;;6.32;1.58;;;8.70;82.10;;;;;;4993820;28;20035;-77
2021/03/17 12:00:22;;;;;;;4.60;1.58;;;8.50;83.50;;;;;;4994845;28;20105;-73
2021/03/17 12:02:48;;;;;;;16.83;5.97;;;8.40;84.00;;;;;;4993429;28;20030;-69
2021/03/17 12:05:16;;;;;;;7.00;2.25;;;8.20;84.00;;;;;;4994941;28;20100;-77
2021/03/17 12:07:41;;;;;;;5.28;1.40;;;8.00;85.10;;;;;;4995035;28;20068;-67
2021/03/17 12:10:09;;;;;;;3.88;1.42;;;7.90;86.20;;;;;;4994506;28;20428;-71
2021/03/17 12:12:35;;;;;;;3.70;1.45;;;8.00;87.20;;;;;;4994785;28;20070;-67
2021/03/17 12:15:09;;;;;;;2.83;1.25;;;8.10;86.70;;;;;;4994964;28;20487;-66
2021/03/17 12:17:35;;;;;;;7.03;1.55;;;8.10;86.70;;;;;;4994247;28;20034;-66
2021/03/17 12:20:01;;;;;;;5.47;1.65;;;8.20;86.80;;;;;;4994764;28;20471;-75
2021/03/17 12:22:27;;;;;;;5.00;1.23;;;8.20;87.10;;;;;;4993814;28;20033;-72
2021/03/17 12:24:53;;;;;;;4.22;1.23;;;8.20;86.20;;;;;;4994775;28;20097;-66
2021/03/17 12:27:18;;;;;;;3.67;1.70;;;8.20;87.10;;;;;;4994405;28;20122;-76
2021/03/17 12:29:44;;;;;;;7.90;3.05;;;8.30;87.20;;;;;;4993998;28;20030;-76
2021/03/17 12:32:10;;;;;;;8.32;1.58;;;8.30;87.10;;;;;;4993289;28;20026;-77
2021/03/17 12:34:35;;;;;;;3.40;1.40;;;8.30;86.60;;;;;;4994535;28;20030;-78
2021/03/17 12:37:01;;;;;;;5.30;1.48;;;8.30;86.60;;;;;;4992794;28;20034;-77
2021/03/17 12:39:27;;;;;;;6.32;1.65;;;8.30;87.10;;;;;;4992733;28;20445;-76
2021/03/17 12:41:53;;;;;;;3.92;1.35;;;8.40;86.80;;;;;;4994433;28;20094;-75
2021/03/17 12:44:19;;;;;;;5.78;1.52;;;8.20;86.40;;;;;;4993374;28;20030;-78
2021/03/17 12:46:44;;;;;;;2.03;1.08;;;8.20;86.60;;;;;;4994636;28;20386;-70
2021/03/17 12:49:10;;;;;;;6.22;5.65;;;8.20;86.70;;;;;;4992556;28;20514;-75
2021/03/17 12:51:36;;;;;;;2.35;1.23;;;8.20;86.70;;;;;;4993726;28;20483;-77
2021/03/17 12:54:01;;;;;;;3.42;1.20;;;8.10;87.60;;;;;;4994256;28;20028;-77
2021/03/17 12:56:27;;;;;;;11.57;4.43;;;8.10;87.00;;;;;;4993689;28;20053;-78
2021/03/17 12:58:53;;;;;;;3.58;1.48;;;8.00;88.40;;;;;;4993528;28;20426;-67
2021/03/17 13:01:18;;;;;;;4.35;1.83;;;8.00;89.90;;;;;;4993748;28;20097;-75
2021/03/17 13:03:44;;;;;;;4.63;3.08;;;8.10;89.30;;;;;;4992650;28;20072;-74
2021/03/17 13:06:10;;;;;;;2.78;1.25;;;8.10;89.30;;;;;;4993121;28;20026;-69
2021/03/17 13:08:37;;;;;;;2.65;1.20;;;8.10;89.10;;;;;;4993837;28;20550;-78
2021/03/17 13:11:02;;;;;;;2.92;1.33;;;8.20;89.00;;;;;;4993833;28;20081;-72